Terminal Aerodrome Forecast
Issued by NWS

Home | Current Version | Previous Version | Text Only | Print | Product List | Glossary On
Versions: 1 2 3 4 5 6 7 8 9 10 11 12 13 14 15 16 17 18 19 20 21
436
FTUS41 KGYX 062320
TAFAUG
TAF
KAUG 062320Z 0700/0724 00000KT P6SM SKC
     FM070400 14003KT P6SM BKN030
     FM070800 00000KT 1SM BR OVC004
     FM071200 04004KT P6SM OVC009
     FM071500 08004KT P6SM OVC019
     FM071800 09005KT P6SM OVC007
     FM072200 11004KT P6SM OVC003=

USA.gov is the U.S. government's official web portal to all federal, state and local government web resources and services.